Time;durP1;ratioP1;P1;durP2;ratioP2;P2;SDS_P1;SDS_P2;PMS_P1;PMS_P2;Temp;Humidity;BMP_temperature;BMP_pressure;BME280_temperature;BME280_humidity;BME280_pressure;Samples;Min_cycle;Max_cycle;Signal;HPM_P1;HPM_P2
2021/04/06 00:01:42;;;;;;;23.20;13.25;;;;;;;6.26;71.62;99030.00;5012579;28;20026;-50
2021/04/06 00:04:11;;;;;;;23.80;13.23;;;;;;;6.15;72.20;99024.38;5029182;28;20056;-51
2021/04/06 00:06:38;;;;;;;20.85;12.60;;;;;;;6.32;71.18;99032.84;5027951;28;20520;-51
2021/04/06 00:09:08;;;;;;;25.25;13.00;;;;;;;6.27;72.30;99030.78;5029517;28;20068;-50
2021/04/06 00:11:35;;;;;;;26.27;12.23;;;;;;;6.32;71.64;99033.69;5032013;28;20079;-50
2021/04/06 00:14:01;;;;;;;22.55;12.60;;;;;;;6.26;72.39;99024.69;5032103;28;20022;-50
2021/04/06 00:16:26;;;;;;;20.65;12.25;;;;;;;6.28;72.24;99021.84;5015661;28;20081;-51
2021/04/06 00:18:52;;;;;;;22.15;12.93;;;;;;;6.29;71.22;99014.75;5032147;28;20022;-51
2021/04/06 00:21:17;;;;;;;23.45;12.93;;;;;;;6.33;72.22;99008.06;5015753;28;20139;-49
2021/04/06 00:23:42;;;;;;;23.08;12.60;;;;;;;6.26;71.18;99008.00;4999787;28;20017;-51
2021/04/06 00:26:08;;;;;;;24.60;13.43;;;;;;;6.07;72.05;98983.94;5032712;28;20029;-52
2021/04/06 00:28:35;;;;;;;23.77;13.73;;;;;;;6.20;72.05;99006.97;5033801;28;20025;-48
2021/04/06 00:31:00;;;;;;;24.63;14.50;;;;;;;6.17;72.29;98999.44;5016081;28;20022;-48
2021/04/06 00:33:47;;;;;;;27.50;14.18;;;;;;;5.84;72.58;98994.66;5034145;28;20028;-52
2021/04/06 00:36:12;;;;;;;24.70;14.00;;;;;;;5.91;73.30;99005.28;5045965;28;20139;-50
2021/04/06 00:38:41;;;;;;;26.83;14.48;;;;;;;5.89;72.28;98996.75;5045421;28;20087;-50
2021/04/06 00:41:11;;;;;;;26.08;14.40;;;;;;;5.79;72.40;98985.72;5053858;28;20052;-51
2021/04/06 00:43:39;;;;;;;24.55;13.30;;;;;;;5.74;73.86;98988.91;5036335;28;20500;-49
2021/04/06 00:46:06;;;;;;;27.17;13.88;;;;;;;5.60;73.76;98982.72;5051969;28;20025;-53
2021/04/06 00:48:32;;;;;;;23.80;13.85;;;;;;;5.51;74.14;98975.13;5053594;28;20021;-51
2021/04/06 00:51:07;;;;;;;24.02;12.73;;;;;;;5.59;73.66;98977.63;5053517;28;20529;-52
2021/04/06 00:53:52;;;;;;;25.38;14.43;;;;;;;5.39;74.16;98977.44;5053603;28;20013;-51
2021/04/06 00:56:18;;;;;;;22.30;13.10;;;;;;;5.40;75.01;98971.94;5053373;28;20433;-49
2021/04/06 00:58:44;;;;;;;24.17;13.73;;;;;;;5.42;74.37;98969.94;5053373;28;20032;-49
2021/04/06 01:01:10;;;;;;;25.42;13.88;;;;;;;5.32;75.17;98969.44;5053318;28;20083;-52
2021/04/06 01:03:37;;;;;;;23.88;14.23;;;;;;;4.93;75.97;98970.69;5053094;28;20102;-50
2021/04/06 01:06:07;;;;;;;23.80;14.15;;;;;;;5.11;75.90;98964.97;5050384;28;20099;-49
2021/04/06 01:08:36;;;;;;;26.25;13.52;;;;;;;5.27;75.75;98961.28;5052742;28;20075;-50
2021/04/06 01:11:02;;;;;;;25.00;14.10;;;;;;;5.20;75.29;98953.31;5053090;28;20049;-49
2021/04/06 01:13:27;;;;;;;23.25;13.07;;;;;;;5.19;74.42;98946.38;5051436;28;20024;-50
2021/04/06 01:15:54;;;;;;;22.52;13.57;;;;;;;5.33;74.53;98947.34;5053079;28;20032;-49
2021/04/06 01:18:23;;;;;;;23.65;13.80;;;;;;;5.20;74.88;98939.31;5051901;28;20036;-48
2021/04/06 01:20:49;;;;;;;31.33;17.63;;;;;;;5.22;74.81;98943.38;5052704;28;20035;-50
2021/04/06 01:23:15;;;;;;;30.90;16.67;;;;;;;5.00;75.04;98936.47;5051305;28;20044;-47
2021/04/06 01:25:45;;;;;;;27.00;16.13;;;;;;;4.89;76.42;98932.47;5051828;28;20025;-50
2021/04/06 01:28:11;;;;;;;27.17;15.95;;;;;;;4.87;76.11;98923.94;5052907;28;20029;-50
2021/04/06 01:30:45;;;;;;;33.65;17.63;;;;;;;4.89;75.00;98928.03;5052952;28;20040;-48
2021/04/06 01:33:17;;;;;;;35.53;18.67;;;;;;;4.80;75.73;98936.25;5052561;28;20025;-48
2021/04/06 01:35:51;;;;;;;33.55;19.15;;;;;;;4.75;76.82;98920.97;5034578;28;20029;-48
2021/04/06 01:38:16;;;;;;;29.60;17.27;;;;;;;4.87;75.75;98926.56;5042787;28;20110;-50
2021/04/06 01:40:42;;;;;;;33.88;18.20;;;;;;;4.86;76.48;98923.13;5052553;28;20044;-48
2021/04/06 01:43:09;;;;;;;32.45;17.55;;;;;;;4.93;75.41;98922.38;5052470;28;20095;-53
2021/04/06 01:45:43;;;;;;;28.15;16.77;;;;;;;4.85;76.15;98918.03;5052644;28;20098;-49
2021/04/06 01:48:08;;;;;;;28.33;16.20;;;;;;;4.70;75.69;98918.91;5052279;28;20028;-48
2021/04/06 01:50:34;;;;;;;29.65;16.50;;;;;;;4.70;75.50;98900.47;5051228;28;20516;-49
2021/04/06 01:53:00;;;;;;;27.98;16.48;;;;;;;4.86;75.74;98911.78;5034479;28;20029;-50
2021/04/06 01:55:30;;;;;;;29.58;15.55;;;;;;;4.72;74.88;98915.25;5051030;28;20021;-51
2021/04/06 01:57:56;;;;;;;24.55;14.55;;;;;;;4.89;75.77;98903.47;5052367;28;20032;-52
2021/04/06 02:00:40;;;;;;;26.90;14.60;;;;;;;4.87;74.69;98900.22;5052236;28;20047;-51
2021/04/06 02:03:09;;;;;;;23.98;14.38;;;;;;;5.01;75.51;98898.56;5051125;28;20036;-51
2021/04/06 02:05:34;;;;;;;25.02;14.82;;;;;;;4.95;76.30;98894.84;5050206;28;20112;-51
2021/04/06 02:08:06;;;;;;;25.13;14.50;;;;;;;4.86;75.35;98896.78;5031021;28;20030;-51
2021/04/06 02:10:32;;;;;;;25.33;14.20;;;;;;;4.90;75.03;98898.03;5015249;28;20046;-52
2021/04/06 02:13:05;;;;;;;25.73;14.13;;;;;;;4.88;75.56;98899.22;5030810;28;20025;-51
2021/04/06 02:15:30;;;;;;;26.15;14.30;;;;;;;5.02;74.87;98879.88;5015470;28;20022;-50
2021/04/06 02:17:56;;;;;;;24.88;14.43;;;;;;;4.94;75.46;98880.00;5032130;28;20480;-50
2021/04/06 02:20:23;;;;;;;26.58;14.13;;;;;;;5.04;74.57;98879.69;5031935;28;20040;-51
2021/04/06 02:22:59;;;;;;;26.60;14.52;;;;;;;4.91;75.67;98888.28;5031515;28;20113;-51
2021/04/06 02:25:28;;;;;;;28.63;13.77;;;;;;;4.75;75.92;98885.91;5031604;28;20028;-50
2021/04/06 02:27:53;;;;;;;24.20;14.55;;;;;;;4.66;76.63;98877.28;5032068;28;20060;-51
2021/04/06 02:30:29;;;;;;;24.77;14.82;;;;;;;4.76;76.27;98879.63;5031436;28;20029;-52
2021/04/06 02:32:54;;;;;;;25.58;14.60;;;;;;;4.65;75.28;98875.66;5031738;28;20040;-52
2021/04/06 02:35:20;;;;;;;32.35;16.25;;;;;;;4.45;76.37;98878.88;5046342;28;20025;-51
2021/04/06 02:37:46;;;;;;;28.88;15.27;;;;;;;4.45;76.74;98878.06;5049933;28;20112;-51
2021/04/06 02:40:16;;;;;;;26.55;15.10;;;;;;;4.60;76.17;98875.41;5051142;28;20025;-51
2021/04/06 02:42:54;;;;;;;28.08;15.68;;;;;;;4.39;77.04;98870.91;5052004;28;20047;-51
2021/04/06 02:45:24;;;;;;;31.40;15.52;;;;;;;4.47;76.30;98855.81;5051169;28;20025;-50
2021/04/06 02:47:51;;;;;;;28.58;14.98;;;;;;;4.67;76.50;98866.56;5051231;28;20572;-49
2021/04/06 02:50:26;;;;;;;27.88;15.15;;;;;;;4.42;76.04;98865.28;5049898;28;20029;-52
2021/04/06 02:52:52;;;;;;;27.45;15.38;;;;;;;4.52;76.43;98849.16;5033560;28;20036;-51
2021/04/06 02:55:17;;;;;;;29.50;15.70;;;;;;;4.37;77.12;98838.66;5049770;28;20116;-51
2021/04/06 02:57:50;;;;;;;28.50;14.70;;;;;;;4.47;75.96;98849.72;5049240;28;20499;-51
2021/04/06 03:00:27;;;;;;;28.13;15.45;;;;;;;4.39;77.22;98853.28;5051053;28;20063;-49
2021/04/06 03:02:59;;;;;;;28.70;14.98;;;;;;;4.31;76.60;98851.56;5050340;28;20025;-51
2021/04/06 03:05:38;;;;;;;31.25;15.80;;;;;;;4.31;76.85;98856.84;5051093;28;20063;-51
2021/04/06 03:08:05;;;;;;;26.17;14.65;;;;;;;4.42;77.53;98852.09;5030861;28;20110;-51
2021/04/06 03:10:30;;;;;;;27.67;15.43;;;;;;;4.45;77.39;98849.09;5030676;28;20052;-52
2021/04/06 03:12:57;;;;;;;32.53;15.93;;;;;;;4.46;77.67;98845.47;5031212;28;20029;-50
2021/04/06 03:15:26;;;;;;;26.50;14.70;;;;;;;4.50;77.25;98849.34;5029574;28;20485;-50
2021/04/06 03:17:55;;;;;;;28.65;15.65;;;;;;;4.49;76.36;98843.28;5031128;28;20130;-52
2021/04/06 03:20:21;;;;;;;28.35;15.98;;;;;;;4.57;75.82;98839.72;5030662;28;20030;-50
2021/04/06 03:22:48;;;;;;;30.33;16.88;;;;;;;4.61;76.48;98832.25;5030911;28;20032;-51
2021/04/06 03:25:13;;;;;;;31.05;15.93;;;;;;;4.64;76.51;98837.94;5030474;28;20028;-53
2021/04/06 03:27:43;;;;;;;30.48;16.77;;;;;;;4.48;76.69;98848.72;5030450;28;20029;-51
2021/04/06 03:30:09;;;;;;;31.13;17.85;;;;;;;4.45;77.43;98851.72;5030469;28;20072;-50
2021/04/06 03:32:35;;;;;;;28.90;17.33;;;;;;;4.50;77.32;98852.78;5030469;28;20044;-52
2021/04/06 03:35:00;;;;;;;33.58;17.95;;;;;;;4.61;75.89;98840.97;5043054;28;20467;-50
2021/04/06 03:37:28;;;;;;;36.03;18.38;;;;;;;4.48;76.47;98848.72;5049045;28;20032;-51
2021/04/06 03:39:53;;;;;;;36.05;18.98;;;;;;;4.55;76.61;98852.25;5050486;28;20021;-48
2021/04/06 03:42:25;;;;;;;32.08;18.45;;;;;;;4.65;76.26;98849.31;5049265;28;20453;-52
2021/04/06 03:45:01;;;;;;;32.10;17.88;;;;;;;4.61;75.86;98843.59;5050413;28;20025;-52
2021/04/06 03:47:27;;;;;;;39.28;20.20;;;;;;;4.59;76.26;98842.13;5048896;28;20106;-52
2021/04/06 03:49:52;;;;;;;40.72;21.17;;;;;;;4.69;75.99;98843.47;5049280;28;20331;-52
2021/04/06 03:52:18;;;;;;;35.22;18.85;;;;;;;4.51;76.15;98843.06;5050259;28;20024;-52
2021/04/06 03:54:48;;;;;;;37.28;18.50;;;;;;;4.39;75.67;98849.81;5050336;28;20016;-52
2021/04/06 04:00:08;;;;;;;33.58;18.00;;;;;;;4.56;75.21;98858.34;5050351;28;20029;-52
2021/04/06 04:02:33;;;;;;;34.70;18.13;;;;;;;4.60;75.32;98855.13;5050054;28;20041;-50
2021/04/06 04:05:00;;;;;;;37.08;19.05;;;;;;;4.66;75.71;98861.47;5050143;28;20302;-49
2021/04/06 04:07:25;;;;;;;39.80;19.30;;;;;;;4.83;75.37;98862.84;5048206;28;20412;-49
2021/04/06 04:09:51;;;;;;;34.65;18.30;;;;;;;4.48;75.22;98861.91;5049647;28;20482;-50
2021/04/06 04:12:16;;;;;;;31.23;16.63;;;;;;;4.39;75.04;98863.81;5050222;28;20358;-55
2021/04/06 04:14:42;;;;;;;32.00;16.52;;;;;;;4.47;75.24;98861.09;5049647;28;20017;-51
2021/04/06 04:17:08;;;;;;;33.92;18.02;;;;;;;4.49;75.22;98863.50;5049349;28;20025;-53
2021/04/06 04:19:34;;;;;;;29.45;16.13;;;;;;;4.38;74.99;98869.25;5048074;28;20102;-52
2021/04/06 04:21:59;;;;;;;34.72;17.67;;;;;;;4.45;75.00;98867.53;5049330;28;20481;-49
2021/04/06 04:24:25;;;;;;;29.95;17.02;;;;;;;4.45;73.68;98863.06;5049299;28;20021;-52
2021/04/06 04:26:50;;;;;;;30.65;16.67;;;;;;;4.33;74.42;98863.75;5045003;28;20083;-52
2021/04/06 04:29:16;;;;;;;30.48;16.80;;;;;;;4.27;74.41;98868.75;5040067;28;20023;-55
2021/04/06 04:31:45;;;;;;;28.08;16.67;;;;;;;4.27;75.11;98850.31;5036928;28;20393;-52
2021/04/06 04:34:10;;;;;;;46.55;23.98;;;;;;;4.38;74.40;98849.03;5038694;28;20021;-39
2021/04/06 04:36:36;;;;;;;34.17;18.60;;;;;;;4.40;73.50;98848.81;5037490;28;20095;-39
2021/04/06 04:39:02;;;;;;;46.20;23.08;;;;;;;4.46;73.47;98835.72;5037356;28;20033;-37
2021/04/06 04:41:27;;;;;;;29.58;16.52;;;;;;;4.61;73.22;98840.16;5040310;28;20033;-38
2021/04/06 04:43:52;;;;;;;27.55;14.40;;;;;;;4.53;73.48;98838.41;5037200;28;20040;-38
2021/04/06 04:46:18;;;;;;;28.58;14.82;;;;;;;4.56;73.28;98848.59;5034568;28;20377;-38
2021/04/06 04:48:43;;;;;;;29.63;14.52;;;;;;;4.63;73.48;98848.69;5041270;28;20118;-39
2021/04/06 04:51:09;;;;;;;32.03;14.57;;;;;;;4.83;73.45;98833.06;5036514;28;20033;-38
2021/04/06 04:53:34;;;;;;;53.08;27.30;;;;;;;4.82;72.65;98844.63;5042760;28;20473;-39
2021/04/06 04:56:00;;;;;;;89.60;40.58;;;;;;;4.66;73.60;98843.03;5046590;28;20124;-38
2021/04/06 04:58:25;;;;;;;27.73;14.13;;;;;;;4.66;73.07;98838.59;5043047;28;20032;-38
2021/04/06 05:00:51;;;;;;;27.05;14.05;;;;;;;4.58;73.78;98843.16;5042677;28;20032;-38
2021/04/06 05:03:16;;;;;;;26.42;13.35;;;;;;;4.67;73.92;98840.19;5044757;28;20063;-38
2021/04/06 05:05:41;;;;;;;25.58;13.45;;;;;;;4.76;72.98;98847.97;5042788;28;20131;-38
2021/04/06 05:08:07;;;;;;;22.38;13.30;;;;;;;4.92;71.96;98845.09;5041269;28;20029;-38
2021/04/06 05:10:32;;;;;;;25.50;13.88;;;;;;;4.56;72.59;98814.34;5037618;28;20095;-38
2021/04/06 05:12:58;;;;;;;24.63;13.73;;;;;;;4.82;72.67;98847.25;5043085;28;20088;-52
2021/04/06 05:15:23;;;;;;;25.00;14.93;;;;;;;4.55;72.98;98825.06;5040818;28;20036;-53
2021/04/06 05:17:49;;;;;;;23.20;13.25;;;;;;;4.95;72.72;98854.44;5039597;28;20056;-52
2021/04/06 05:20:15;;;;;;;23.40;11.90;;;;;;;5.02;72.37;98842.16;5041162;28;20029;-52
2021/04/06 05:22:41;;;;;;;25.33;12.68;;;;;;;4.89;72.76;98850.75;5043533;28;20026;-38
2021/04/06 05:25:06;;;;;;;23.42;13.50;;;;;;;5.22;71.59;98842.34;5041444;28;20036;-38
2021/04/06 05:27:32;;;;;;;63.38;32.63;;;;;;;5.28;71.95;98833.66;5038613;28;20502;-38
2021/04/06 05:29:58;;;;;;;27.40;15.50;;;;;;;5.40;73.11;98836.56;5043253;28;20036;-38
2021/04/06 05:32:23;;;;;;;22.80;12.27;;;;;;;5.92;71.00;98845.00;5043138;28;20024;-38
2021/04/06 05:34:49;;;;;;;22.63;12.75;;;;;;;6.22;70.65;98835.84;5045763;28;20021;-39
2021/04/06 05:37:14;;;;;;;20.13;11.60;;;;;;;6.52;69.86;98843.47;5041482;28;20021;-38
2021/04/06 05:39:40;;;;;;;17.95;10.98;;;;;;;6.80;68.25;98838.06;5033083;28;20128;-39
2021/04/06 05:42:05;;;;;;;19.27;10.45;;;;;;;6.83;67.81;98837.66;5031802;28;20070;-38
2021/04/06 05:44:31;;;;;;;19.80;11.07;;;;;;;6.88;66.68;98821.19;5030339;28;20029;-39
2021/04/06 05:46:58;;;;;;;19.35;11.45;;;;;;;6.54;67.52;98827.41;5030259;28;20386;-38
2021/04/06 05:49:30;;;;;;;37.58;21.77;;;;;;;6.61;66.94;98826.41;5031618;28;20029;-38
2021/04/06 05:51:55;;;;;;;104.82;54.92;;;;;;;6.58;67.11;98832.09;5030525;28;20048;-38
2021/04/06 05:54:21;;;;;;;25.80;14.45;;;;;;;6.21;68.41;98836.06;5031443;28;20051;-39
2021/04/06 05:56:47;;;;;;;21.98;13.55;;;;;;;6.04;69.03;98836.38;5030181;28;20035;-39
2021/04/06 05:59:12;;;;;;;23.58;12.50;;;;;;;5.99;68.95;98841.44;5031683;28;20025;-38
2021/04/06 06:01:40;;;;;;;23.50;12.57;;;;;;;5.96;70.10;98833.06;5031407;28;20470;-37
2021/04/06 06:04:18;;;;;;;21.75;13.23;;;;;;;6.10;70.20;98828.69;5031266;28;20140;-39
2021/04/06 06:06:43;;;;;;;21.83;12.70;;;;;;;6.20;69.26;98821.19;5031316;28;20030;-38
2021/04/06 06:09:10;;;;;;;26.30;13.68;;;;;;;6.13;70.28;98829.13;5029308;28;20087;-39
2021/04/06 06:12:01;;;;;;;22.60;13.68;;;;;;;6.25;70.02;98824.88;5030205;28;20037;-39
2021/04/06 06:14:27;;;;;;;24.58;15.07;;;;;;;6.31;69.37;98815.34;5030754;28;20045;-38
2021/04/06 06:16:53;;;;;;;24.33;14.18;;;;;;;6.43;69.51;98820.88;5030947;28;20034;-38
2021/04/06 06:19:18;;;;;;;27.10;14.05;;;;;;;6.34;69.51;98824.69;5029396;28;20041;-38
2021/04/06 06:21:51;;;;;;;24.45;14.20;;;;;;;6.55;68.94;98829.88;5012422;28;20025;-38
2021/04/06 06:24:26;;;;;;;29.80;14.80;;;;;;;6.58;69.14;98836.56;5030911;28;20036;-39
2021/04/06 06:26:52;;;;;;;85.57;44.53;;;;;;;6.69;69.25;98827.25;5029688;28;20487;-39
2021/04/06 06:29:20;;;;;;;44.55;23.45;;;;;;;6.63;69.80;98824.38;5030683;28;20071;-39
2021/04/06 06:31:50;;;;;;;31.75;15.95;;;;;;;6.64;69.44;98833.97;5031145;28;20052;-39
2021/04/06 06:34:36;;;;;;;28.52;15.75;;;;;;;6.67;69.68;98840.66;5037261;28;20025;-39
2021/04/06 06:37:09;;;;;;;32.55;16.15;;;;;;;6.82;69.77;98848.44;5050644;28;20033;-39
2021/04/06 06:39:40;;;;;;;29.33;15.52;;;;;;;6.75;70.14;98858.97;5050480;28;20039;-39
2021/04/06 06:42:08;;;;;;;30.60;15.93;;;;;;;6.73;70.04;98841.69;5050445;28;20103;-39
2021/04/06 06:44:34;;;;;;;26.65;15.00;;;;;;;7.05;69.23;98829.53;5050408;28;20062;-39
2021/04/06 06:47:09;;;;;;;29.40;15.32;;;;;;;6.93;70.72;98826.69;5050328;28;20060;-38
2021/04/06 06:49:37;;;;;;;28.48;14.82;;;;;;;7.10;69.98;98818.31;5050441;28;20374;-38
2021/04/06 06:52:20;;;;;;;33.20;17.40;;;;;;;7.14;69.95;98816.91;5050316;28;20028;-39
2021/04/06 06:54:45;;;;;;;36.75;17.30;;;;;;;7.47;67.93;98821.38;5050048;28;20046;-38
2021/04/06 06:57:12;;;;;;;33.10;17.08;;;;;;;7.42;68.38;98822.81;5050046;28;20025;-39
2021/04/06 06:59:39;;;;;;;39.05;18.00;;;;;;;7.43;68.81;98808.53;5050309;28;20020;-38
2021/04/06 07:02:27;;;;;;;30.58;16.92;;;;;;;7.94;67.37;98814.97;5050000;28;20071;-39
2021/04/06 07:05:06;;;;;;;32.30;17.05;;;;;;;7.80;68.04;98814.16;5050136;28;20028;-38
2021/04/06 07:07:47;;;;;;;31.10;16.63;;;;;;;7.76;67.82;98807.66;5049125;28;20037;-39
2021/04/06 07:10:14;;;;;;;33.55;17.10;;;;;;;7.87;67.28;98811.50;5048339;28;20122;-40
2021/04/06 07:12:44;;;;;;;32.03;17.15;;;;;;;7.96;66.99;98796.22;5049543;28;20334;-38
2021/04/06 07:15:10;;;;;;;28.42;15.77;;;;;;;8.22;66.59;98804.06;5032705;28;20113;-38
2021/04/06 07:17:36;;;;;;;30.05;16.23;;;;;;;8.37;65.96;98824.97;5048307;28;20063;-37
2021/04/06 07:20:01;;;;;;;32.67;16.63;;;;;;;8.10;66.40;98824.28;5032059;28;20369;-38
2021/04/06 07:22:26;;;;;;;33.75;17.00;;;;;;;7.96;66.35;98812.91;5048388;28;20025;-38
2021/04/06 07:24:52;;;;;;;29.85;17.08;;;;;;;8.02;66.19;98811.25;5048299;28;20029;-38
2021/04/06 07:27:20;;;;;;;32.05;16.67;;;;;;;8.16;66.48;98820.78;5048546;28;20063;-38
2021/04/06 07:29:45;;;;;;;30.98;16.35;;;;;;;8.14;66.93;98825.47;5049792;28;20219;-39
2021/04/06 07:32:13;;;;;;;34.78;17.88;;;;;;;8.54;65.59;98816.56;5031880;28;20056;-38
2021/04/06 07:34:39;;;;;;;37.08;18.98;;;;;;;8.65;64.82;98815.09;5049388;28;20059;-38
2021/04/06 07:37:05;;;;;;;39.95;20.67;;;;;;;8.52;64.72;98819.41;5049520;28;20028;-38
2021/04/06 07:39:30;;;;;;;28.52;16.52;;;;;;;8.54;65.92;98821.88;5047779;28;20032;-39
2021/04/06 07:41:56;;;;;;;30.35;15.77;;;;;;;8.77;64.05;98827.44;5049328;28;20029;-39
2021/04/06 07:44:21;;;;;;;26.92;15.32;;;;;;;8.94;64.25;98826.91;5048439;28;20416;-39
2021/04/06 07:46:47;;;;;;;31.58;16.63;;;;;;;9.19;63.50;98822.44;5031716;28;20071;-38
2021/04/06 07:49:22;;;;;;;32.60;17.50;;;;;;;9.66;61.52;98805.28;5049486;28;20063;-39
2021/04/06 07:51:52;;;;;;;29.80;16.70;;;;;;;9.56;62.54;98805.78;5049879;28;20029;-39
2021/04/06 07:54:21;;;;;;;29.35;16.83;;;;;;;9.84;61.17;98801.81;5049541;28;20025;-39
2021/04/06 07:56:57;;;;;;;27.70;15.20;;;;;;;9.92;61.26;98790.91;5049623;28;20107;-37
2021/04/06 07:59:22;;;;;;;25.48;14.55;;;;;;;10.15;60.32;98779.56;5049449;28;20036;-38
2021/04/06 08:01:53;;;;;;;25.63;14.95;;;;;;;10.38;59.51;98770.91;5049288;28;20040;-38
2021/04/06 08:04:20;;;;;;;25.30;14.85;;;;;;;10.31;59.24;98754.22;5048760;28;20703;-38
2021/04/06 08:06:46;;;;;;;29.30;16.45;;;;;;;10.67;58.21;98763.13;5049269;28;20033;-39
2021/04/06 08:09:34;;;;;;;29.42;14.80;;;;;;;10.93;57.84;98761.91;5048911;28;20136;-39
2021/04/06 08:12:07;;;;;;;27.38;15.20;;;;;;;10.70;58.43;98774.13;5049578;28;20040;-38
2021/04/06 08:14:43;;;;;;;26.35;15.73;;;;;;;10.99;57.68;98749.53;5048159;28;20021;-38
2021/04/06 08:17:26;;;;;;;26.48;14.65;;;;;;;11.46;56.34;98737.03;5049256;28;20915;-39
2021/04/06 08:19:52;;;;;;;23.10;14.57;;;;;;;11.81;55.36;98732.69;5049152;28;20029;-38
2021/04/06 08:22:29;;;;;;;24.98;14.90;;;;;;;11.91;54.50;98749.69;5048256;28;20081;-39
2021/04/06 08:25:18;;;;;;;30.13;16.35;;;;;;;12.09;53.31;98740.72;5048341;28;20036;-38
2021/04/06 08:27:51;;;;;;;22.98;14.05;;;;;;;12.08;53.48;98730.28;5034938;28;20044;-38
2021/04/06 08:30:19;;;;;;;24.70;14.30;;;;;;;12.31;53.62;98716.03;5051380;28;20036;-39
2021/04/06 08:32:57;;;;;;;29.48;17.35;;;;;;;12.50;53.44;98717.44;5052807;28;20484;-38
2021/04/06 08:38:25;;;;;;;24.65;15.52;;;;;;;11.82;54.70;98672.97;5052988;28;20033;-36
2021/04/06 08:41:03;;;;;;;30.85;15.85;;;;;;;12.20;53.72;98725.72;5052733;28;20102;-39
2021/04/06 08:43:33;;;;;;;26.92;14.98;;;;;;;10.84;57.62;98710.06;5052597;28;20053;-38
2021/04/06 08:46:01;;;;;;;26.92;16.13;;;;;;;11.21;57.65;98704.50;5052807;28;20036;-38
2021/04/06 08:48:45;;;;;;;27.88;15.90;;;;;;;11.72;55.10;98700.22;5052887;28;20100;-38
2021/04/06 08:51:28;;;;;;;24.50;14.50;;;;;;;11.87;54.89;98676.53;5052547;28;20028;-39
2021/04/06 08:54:32;;;;;;;31.35;16.58;;;;;;;12.19;55.52;98672.63;5052428;28;20025;-38
2021/04/06 08:56:59;;;;;;;32.13;18.52;;;;;;;12.29;54.45;98678.94;5043145;28;20032;-38
2021/04/06 08:59:39;;;;;;;29.13;17.63;;;;;;;12.37;54.29;98680.41;5052691;28;20567;-38
2021/04/06 09:02:06;;;;;;;28.58;16.02;;;;;;;12.13;54.37;98667.19;5052672;28;20469;-38
2021/04/06 09:04:38;;;;;;;35.03;20.00;;;;;;;12.25;54.38;98653.00;5052309;28;20100;-38
2021/04/06 09:07:23;;;;;;;27.63;16.17;;;;;;;11.98;55.09;98653.59;5044444;28;20028;-37
2021/04/06 09:09:53;;;;;;;28.83;16.98;;;;;;;12.08;55.10;98652.97;5044969;28;20120;-38
2021/04/06 09:12:19;;;;;;;29.25;16.80;;;;;;;11.88;56.04;98653.34;5041171;28;20429;-40
2021/04/06 09:14:45;;;;;;;28.63;17.27;;;;;;;11.80;56.17;98645.75;5043308;28;20032;-39
2021/04/06 09:17:10;;;;;;;27.88;17.33;;;;;;;11.61;57.07;98651.25;5049150;28;20033;-39
2021/04/06 09:19:37;;;;;;;28.35;16.27;;;;;;;11.96;55.87;98636.22;5046259;28;20021;-39
2021/04/06 09:22:05;;;;;;;27.65;17.15;;;;;;;11.74;57.37;98640.31;5043874;28;20040;-39
2021/04/06 09:24:30;;;;;;;28.90;16.92;;;;;;;12.05;56.83;98640.09;5032307;28;20403;-39
2021/04/06 09:26:56;;;;;;;31.33;17.48;;;;;;;12.20;56.03;98620.88;5032657;28;20033;-39
2021/04/06 09:29:29;;;;;;;29.10;16.58;;;;;;;12.68;55.76;98623.00;5032404;28;20110;-38
2021/04/06 09:31:57;;;;;;;26.23;16.92;;;;;;;12.83;55.26;98609.06;5036343;28;20036;-38
2021/04/06 09:34:27;;;;;;;30.73;16.67;;;;;;;12.25;55.33;98607.66;5051361;28;20017;-39
2021/04/06 09:37:06;;;;;;;26.75;16.80;;;;;;;12.17;55.89;98616.06;5052364;28;20021;-39
2021/04/06 09:39:32;;;;;;;28.52;16.85;;;;;;;12.15;56.47;98621.63;5052396;28;20027;-39
2021/04/06 09:41:58;;;;;;;27.50;17.77;;;;;;;12.04;55.81;98628.63;5052080;28;20024;-38
2021/04/06 09:44:25;;;;;;;26.35;16.98;;;;;;;12.35;55.91;98626.47;5052192;28;20135;-38
2021/04/06 09:47:02;;;;;;;29.50;16.88;;;;;;;12.44;55.72;98618.88;5052742;28;20060;-38
2021/04/06 09:49:35;;;;;;;27.92;16.83;;;;;;;12.67;54.12;98623.25;5052487;28;20118;-39
2021/04/06 09:52:04;;;;;;;27.40;16.42;;;;;;;12.54;54.05;98618.22;5051910;28;20056;-38
2021/04/06 09:54:34;;;;;;;29.63;17.30;;;;;;;12.45;54.41;98623.16;5051905;28;20113;-38
2021/04/06 09:57:10;;;;;;;26.73;16.48;;;;;;;12.60;53.59;98620.72;5051589;28;20078;-39
2021/04/06 09:59:40;;;;;;;30.85;17.73;;;;;;;12.69;53.37;98621.13;5050439;28;20064;-38
2021/04/06 10:02:06;;;;;;;28.45;16.88;;;;;;;12.33;54.47;98615.25;5050589;28;20143;-39
2021/04/06 10:04:39;;;;;;;30.08;16.42;;;;;;;12.16;56.50;98611.75;5051792;28;20080;-37
2021/04/06 10:07:11;;;;;;;31.05;18.33;;;;;;;11.77;56.70;98611.59;5051453;28;20116;-38
2021/04/06 10:09:41;;;;;;;27.45;17.23;;;;;;;11.50;58.17;98612.16;5051742;28;20049;-38
2021/04/06 10:12:08;;;;;;;29.38;19.60;;;;;;;11.33;59.92;98620.88;5052010;28;20025;-38
2021/04/06 10:14:34;;;;;;;30.92;19.10;;;;;;;11.41;59.49;98600.25;5051525;28;20551;-38
2021/04/06 10:17:04;;;;;;;29.90;18.67;;;;;;;10.88;61.20;98592.25;5050120;28;20107;-39
2021/04/06 10:19:30;;;;;;;31.85;18.15;;;;;;;10.86;61.40;98575.69;5052057;28;20032;-39
2021/04/06 10:22:08;;;;;;;30.98;18.33;;;;;;;10.82;61.00;98552.47;5051875;28;20100;-38
2021/04/06 10:24:36;;;;;;;31.17;18.52;;;;;;;10.78;61.01;98533.50;5051434;28;20021;-39
2021/04/06 10:27:09;;;;;;;32.05;18.20;;;;;;;10.86;60.44;98511.03;5051716;28;20039;-38
2021/04/06 10:29:35;;;;;;;28.73;17.90;;;;;;;10.54;61.62;98471.53;5051558;28;20112;-39
2021/04/06 10:32:00;;;;;;;37.58;19.35;;;;;;;10.62;62.15;98455.19;5051779;28;20111;-38
2021/04/06 10:34:26;;;;;;;31.65;20.15;;;;;;;10.79;62.16;98455.25;5043549;28;20101;-38
2021/04/06 10:37:10;;;;;;;30.35;19.42;;;;;;;11.00;62.43;98491.06;5031619;28;20118;-38
2021/04/06 10:39:40;;;;;;;29.25;18.40;;;;;;;10.88;62.08;98500.94;5033947;28;20040;-38
2021/04/06 10:42:07;;;;;;;29.17;18.58;;;;;;;11.09;60.70;98457.69;5051057;28;20049;-39
2021/04/06 10:44:33;;;;;;;32.97;19.30;;;;;;;10.41;62.25;98358.22;5051329;28;20362;-38
2021/04/06 10:46:58;;;;;;;34.83;20.42;;;;;;;10.37;63.87;98415.56;5042764;28;20036;-38
2021/04/06 10:49:24;;;;;;;32.67;20.42;;;;;;;10.75;62.72;98467.41;5038323;28;20021;-38
2021/04/06 10:51:51;;;;;;;30.35;20.17;;;;;;;10.88;62.74;98472.47;5037815;28;20124;-39
2021/04/06 10:54:17;;;;;;;32.50;20.60;;;;;;;10.78;63.37;98464.31;5039913;28;20031;-38
2021/04/06 10:56:56;;;;;;;45.28;25.13;;;;;;;10.60;65.57;98470.56;5041371;28;20021;-38
2021/04/06 10:59:35;;;;;;;35.30;21.35;;;;;;;10.63;66.47;98451.50;5041923;28;20016;-39
2021/04/06 11:02:01;;;;;;;35.67;21.13;;;;;;;10.73;65.68;98440.25;5041681;28;20087;-38
2021/04/06 11:04:27;;;;;;;33.25;19.95;;;;;;;10.62;65.51;98444.53;5041295;28;20025;-38
2021/04/06 11:06:59;;;;;;;32.53;19.80;;;;;;;10.56;65.33;98450.81;5040502;28;20025;-39
2021/04/06 11:09:49;;;;;;;37.20;22.02;;;;;;;10.43;65.79;98473.13;5041946;28;20049;-39
2021/04/06 11:12:15;;;;;;;36.65;21.55;;;;;;;10.42;65.88;98476.88;5038944;28;20025;-38
2021/04/06 11:14:42;;;;;;;36.92;20.55;;;;;;;10.81;64.94;98481.63;5043947;28;20021;-38
2021/04/06 11:17:08;;;;;;;38.58;20.90;;;;;;;11.11;63.65;98490.22;5035839;28;20025;-38
2021/04/06 11:19:38;;;;;;;33.65;20.15;;;;;;;11.07;63.95;98477.63;5030546;28;20021;-38
2021/04/06 11:22:09;;;;;;;33.13;19.55;;;;;;;11.14;63.23;98455.16;5036121;28;20035;-39
2021/04/06 11:24:34;;;;;;;34.17;20.23;;;;;;;10.62;64.12;98459.69;5043401;28;20493;-39
2021/04/06 11:27:01;;;;;;;35.42;19.50;;;;;;;10.48;65.55;98444.00;5050310;28;20047;-38
2021/04/06 11:29:28;;;;;;;37.50;20.67;;;;;;;10.85;64.89;98435.72;5046728;28;20029;-39
2021/04/06 11:32:05;;;;;;;33.55;20.40;;;;;;;10.87;63.85;98430.94;5049234;28;20048;-39
2021/04/06 11:34:31;;;;;;;34.33;19.05;;;;;;;11.31;62.87;98439.19;5041595;28;20222;-38
2021/04/06 11:36:56;;;;;;;31.52;18.35;;;;;;;10.90;62.55;98427.81;5036223;28;20017;-39